DJG weather

Djanet Inedbirene Airport
Djanet, Illizi Province, Algeria

Public forecast

Using degrees Celsius for public forecast. Weather courtesy of forecast.io.

METAR (pilot weather report)

Retrieved 2019/05/21 16:00 UTC (25 minutes ago):

DAAJ 211600Z 18013KT 4500 HZ NSC 39/// Q1009

TAF (pilot weather forecast)

Retrieved 2019/05/21 12:33 UTC (4 hours ago):

TAF DAAJ 211100Z 2112/2212 22014KT 4000 HZ NSC PROB40 TEMPO 2112/2116 22024KT 2000 DRSA BECMG 2116/2119 6000 NSW PROB30 TEMPO 2117/2121 5000 -TSRA FEW040CB